sensor_id;sensor_type;location;lat;lon;timestamp;temperature;humidity
10129;DHT22;5104;50.720;7.044;2023-03-14T00:00:15;11.20;1.00
10129;DHT22;5104;50.720;7.044;2023-03-14T00:02:42;11.10;1.00
10129;DHT22;5104;50.720;7.044;2023-03-14T00:05:09;11.20;1.00
10129;DHT22;5104;50.720;7.044;2023-03-14T00:07:38;11.20;1.00
10129;DHT22;5104;50.720;7.044;2023-03-14T00:10:07;11.20;1.00
10129;DHT22;5104;50.720;7.044;2023-03-14T00:12:36;11.20;1.00
10129;DHT22;5104;50.720;7.044;2023-03-14T00:15:04;11.10;99.90
10129;DHT22;5104;50.720;7.044;2023-03-14T00:17:33;11.20;1.00
10129;DHT22;5104;50.720;7.044;2023-03-14T00:20:00;11.30;1.00
10129;DHT22;5104;50.720;7.044;2023-03-14T00:22:34;11.40;1.00
10129;DHT22;5104;50.720;7.044;2023-03-14T00:25:01;11.50;1.00
10129;DHT22;5104;50.720;7.044;2023-03-14T00:27:28;11.50;1.00
10129;DHT22;5104;50.720;7.044;2023-03-14T00:29:56;11.60;1.00
10129;DHT22;5104;50.720;7.044;2023-03-14T00:32:23;11.60;1.00
10129;DHT22;5104;50.720;7.044;2023-03-14T00:34:50;11.70;1.00
10129;DHT22;5104;50.720;7.044;2023-03-14T00:37:17;11.70;1.00
10129;DHT22;5104;50.720;7.044;2023-03-14T00:39:44;11.70;1.00
10129;DHT22;5104;50.720;7.044;2023-03-14T00:42:10;11.60;1.00
10129;DHT22;5104;50.720;7.044;2023-03-14T00:44:37;11.60;1.00
10129;DHT22;5104;50.720;7.044;2023-03-14T00:47:06;11.50;1.00
10129;DHT22;5104;50.720;7.044;2023-03-14T00:49:33;11.60;1.00
10129;DHT22;5104;50.720;7.044;2023-03-14T00:52:00;11.50;1.00
10129;DHT22;5104;50.720;7.044;2023-03-14T00:54:27;11.50;1.00
10129;DHT22;5104;50.720;7.044;2023-03-14T00:56:54;11.50;1.00
10129;DHT22;5104;50.720;7.044;2023-03-14T00:59:21;11.50;1.00
10129;DHT22;5104;50.720;7.044;2023-03-14T01:01:48;11.50;1.00
10129;DHT22;5104;50.720;7.044;2023-03-14T01:04:16;11.60;1.00
10129;DHT22;5104;50.720;7.044;2023-03-14T01:06:43;11.50;1.00
10129;DHT22;5104;50.720;7.044;2023-03-14T01:09:10;11.60;1.00
10129;DHT22;5104;50.720;7.044;2023-03-14T01:11:37;11.60;1.00
10129;DHT22;5104;50.720;7.044;2023-03-14T01:14:04;11.60;1.00
10129;DHT22;5104;50.720;7.044;2023-03-14T01:16:33;11.60;1.00
10129;DHT22;5104;50.720;7.044;2023-03-14T01:19:00;11.60;1.00
10129;DHT22;5104;50.720;7.044;2023-03-14T01:21:30;11.60;1.00
10129;DHT22;5104;50.720;7.044;2023-03-14T01:23:59;11.70;1.00
10129;DHT22;5104;50.720;7.044;2023-03-14T01:26:28;11.70;1.00
10129;DHT22;5104;50.720;7.044;2023-03-14T01:28:55;11.70;1.00
10129;DHT22;5104;50.720;7.044;2023-03-14T01:31:23;11.70;1.00
10129;DHT22;5104;50.720;7.044;2023-03-14T01:33:51;11.70;1.00
10129;DHT22;5104;50.720;7.044;2023-03-14T01:36:18;11.70;1.00
10129;DHT22;5104;50.720;7.044;2023-03-14T01:38:46;11.70;1.00
10129;DHT22;5104;50.720;7.044;2023-03-14T01:41:15;11.80;99.90
10129;DHT22;5104;50.720;7.044;2023-03-14T01:43:42;11.80;99.90
10129;DHT22;5104;50.720;7.044;2023-03-14T01:46:30;11.80;99.90
10129;DHT22;5104;50.720;7.044;2023-03-14T01:49:13;11.80;99.90
10129;DHT22;5104;50.720;7.044;2023-03-14T01:51:46;11.80;1.00
10129;DHT22;5104;50.720;7.044;2023-03-14T01:54:18;11.80;1.00
10129;DHT22;5104;50.720;7.044;2023-03-14T01:56:48;11.80;1.00
10129;DHT22;5104;50.720;7.044;2023-03-14T01:59:16;11.70;99.90
10129;DHT22;5104;50.720;7.044;2023-03-14T02:01:46;11.60;1.00
10129;DHT22;5104;50.720;7.044;2023-03-14T02:04:14;11.60;1.00
10129;DHT22;5104;50.720;7.044;2023-03-14T02:06:49;11.60;1.00
10129;DHT22;5104;50.720;7.044;2023-03-14T02:09:19;11.50;1.00
10129;DHT22;5104;50.720;7.044;2023-03-14T02:11:46;11.50;99.90
10129;DHT22;5104;50.720;7.044;2023-03-14T02:14:22;11.40;99.90
10129;DHT22;5104;50.720;7.044;2023-03-14T02:16:51;11.40;1.00
10129;DHT22;5104;50.720;7.044;2023-03-14T02:19:24;11.40;1.00
10129;DHT22;5104;50.720;7.044;2023-03-14T02:21:57;11.20;99.90
10129;DHT22;5104;50.720;7.044;2023-03-14T02:24:33;11.10;1.00
10129;DHT22;5104;50.720;7.044;2023-03-14T02:27:08;11.00;1.00
10129;DHT22;5104;50.720;7.044;2023-03-14T02:29:39;10.90;73.10
10129;DHT22;5104;50.720;7.044;2023-03-14T02:32:07;10.90;1.00
10129;DHT22;5104;50.720;7.044;2023-03-14T02:34:35;10.80;23.70
10129;DHT22;5104;50.720;7.044;2023-03-14T02:37:02;10.70;1.00
10129;DHT22;5104;50.720;7.044;2023-03-14T02:39:35;10.70;1.00
10129;DHT22;5104;50.720;7.044;2023-03-14T02:42:04;10.60;1.00
10129;DHT22;5104;50.720;7.044;2023-03-14T02:44:31;10.50;1.00
10129;DHT22;5104;50.720;7.044;2023-03-14T02:46:58;10.30;1.00
10129;DHT22;5104;50.720;7.044;2023-03-14T02:49:27;10.40;99.90
10129;DHT22;5104;50.720;7.044;2023-03-14T02:51:56;10.40;1.00
10129;DHT22;5104;50.720;7.044;2023-03-14T02:54:23;10.30;1.00
10129;DHT22;5104;50.720;7.044;2023-03-14T02:56:50;10.20;1.00
10129;DHT22;5104;50.720;7.044;2023-03-14T02:59:18;10.20;1.00
10129;DHT22;5104;50.720;7.044;2023-03-14T03:01:45;10.10;99.90
10129;DHT22;5104;50.720;7.044;2023-03-14T03:04:12;10.10;1.00
10129;DHT22;5104;50.720;7.044;2023-03-14T03:06:39;10.00;1.00
10129;DHT22;5104;50.720;7.044;2023-03-14T03:09:06;10.00;1.00
10129;DHT22;5104;50.720;7.044;2023-03-14T03:11:32;10.10;1.00
10129;DHT22;5104;50.720;7.044;2023-03-14T03:13:59;10.10;99.90
10129;DHT22;5104;50.720;7.044;2023-03-14T03:16:27;10.20;1.00
10129;DHT22;5104;50.720;7.044;2023-03-14T03:18:54;10.20;1.00
10129;DHT22;5104;50.720;7.044;2023-03-14T03:21:21;10.30;1.00
10129;DHT22;5104;50.720;7.044;2023-03-14T03:23:49;10.30;1.00
10129;DHT22;5104;50.720;7.044;2023-03-14T03:26:16;10.30;1.00
10129;DHT22;5104;50.720;7.044;2023-03-14T03:28:43;10.30;1.00
10129;DHT22;5104;50.720;7.044;2023-03-14T03:31:11;10.40;1.00
10129;DHT22;5104;50.720;7.044;2023-03-14T03:33:39;10.50;1.00
10129;DHT22;5104;50.720;7.044;2023-03-14T03:36:08;10.50;1.00
10129;DHT22;5104;50.720;7.044;2023-03-14T03:38:35;10.60;99.90
10129;DHT22;5104;50.720;7.044;2023-03-14T03:41:04;10.70;99.90
10129;DHT22;5104;50.720;7.044;2023-03-14T03:43:31;10.70;99.90
10129;DHT22;5104;50.720;7.044;2023-03-14T03:45:58;10.70;99.90
10129;DHT22;5104;50.720;7.044;2023-03-14T03:48:24;10.80;99.90
10129;DHT22;5104;50.720;7.044;2023-03-14T03:50:53;10.70;99.90
10129;DHT22;5104;50.720;7.044;2023-03-14T03:53:19;10.60;1.00
10129;DHT22;5104;50.720;7.044;2023-03-14T03:55:46;10.60;1.00
10129;DHT22;5104;50.720;7.044;2023-03-14T03:58:13;10.60;1.00
10129;DHT22;5104;50.720;7.044;2023-03-14T04:00:40;10.60;1.00
10129;DHT22;5104;50.720;7.044;2023-03-14T04:03:07;10.50;1.00
10129;DHT22;5104;50.720;7.044;2023-03-14T04:05:34;10.50;1.00
10129;DHT22;5104;50.720;7.044;2023-03-14T04:08:03;10.60;1.00
10129;DHT22;5104;50.720;7.044;2023-03-14T04:10:33;10.60;1.00
10129;DHT22;5104;50.720;7.044;2023-03-14T04:13:00;10.50;1.00
10129;DHT22;5104;50.720;7.044;2023-03-14T04:15:27;10.50;1.00
10129;DHT22;5104;50.720;7.044;2023-03-14T04:17:56;10.40;10.50
10129;DHT22;5104;50.720;7.044;2023-03-14T04:20:24;10.40;99.90
10129;DHT22;5104;50.720;7.044;2023-03-14T04:22:51;10.40;85.40
10129;DHT22;5104;50.720;7.044;2023-03-14T04:25:19;10.50;99.90
10129;DHT22;5104;50.720;7.044;2023-03-14T04:27:47;10.50;87.80
10129;DHT22;5104;50.720;7.044;2023-03-14T04:30:14;10.50;99.90
10129;DHT22;5104;50.720;7.044;2023-03-14T04:32:41;10.50;99.90
10129;DHT22;5104;50.720;7.044;2023-03-14T04:35:08;10.50;99.50
10129;DHT22;5104;50.720;7.044;2023-03-14T04:37:35;10.60;1.00
10129;DHT22;5104;50.720;7.044;2023-03-14T04:40:02;10.60;1.00
10129;DHT22;5104;50.720;7.044;2023-03-14T04:42:33;10.70;99.90
10129;DHT22;5104;50.720;7.044;2023-03-14T04:45:00;10.70;1.00
10129;DHT22;5104;50.720;7.044;2023-03-14T04:47:27;10.60;99.90
10129;DHT22;5104;50.720;7.044;2023-03-14T04:49:53;10.60;1.00
10129;DHT22;5104;50.720;7.044;2023-03-14T04:52:20;10.50;99.90
10129;DHT22;5104;50.720;7.044;2023-03-14T04:54:47;10.50;1.00
10129;DHT22;5104;50.720;7.044;2023-03-14T04:57:14;10.40;1.00
10129;DHT22;5104;50.720;7.044;2023-03-14T04:59:42;10.40;1.00
10129;DHT22;5104;50.720;7.044;2023-03-14T05:02:09;10.40;99.90
10129;DHT22;5104;50.720;7.044;2023-03-14T05:04:36;10.30;99.90
10129;DHT22;5104;50.720;7.044;2023-03-14T05:07:03;10.30;99.30
10129;DHT22;5104;50.720;7.044;2023-03-14T05:09:30;10.30;99.90
10129;DHT22;5104;50.720;7.044;2023-03-14T05:11:57;10.30;99.90
10129;DHT22;5104;50.720;7.044;2023-03-14T05:14:24;10.30;99.90
10129;DHT22;5104;50.720;7.044;2023-03-14T05:16:52;10.30;99.90
10129;DHT22;5104;50.720;7.044;2023-03-14T05:19:19;10.30;1.00
10129;DHT22;5104;50.720;7.044;2023-03-14T05:21:46;10.30;99.90
10129;DHT22;5104;50.720;7.044;2023-03-14T05:24:12;10.30;1.00
10129;DHT22;5104;50.720;7.044;2023-03-14T05:26:39;10.20;1.00
10129;DHT22;5104;50.720;7.044;2023-03-14T05:29:06;10.20;1.00
10129;DHT22;5104;50.720;7.044;2023-03-14T05:31:33;10.20;1.00
10129;DHT22;5104;50.720;7.044;2023-03-14T05:34:01;10.10;1.00
10129;DHT22;5104;50.720;7.044;2023-03-14T05:36:28;10.10;99.90
10129;DHT22;5104;50.720;7.044;2023-03-14T05:38:55;10.00;22.00
10129;DHT22;5104;50.720;7.044;2023-03-14T05:41:22;10.00;99.90
10129;DHT22;5104;50.720;7.044;2023-03-14T05:43:49;10.00;1.00
10129;DHT22;5104;50.720;7.044;2023-03-14T05:46:16;10.00;1.00
10129;DHT22;5104;50.720;7.044;2023-03-14T05:48:43;9.90;1.00
10129;DHT22;5104;50.720;7.044;2023-03-14T05:51:11;9.90;1.00
10129;DHT22;5104;50.720;7.044;2023-03-14T05:53:38;10.00;1.00
10129;DHT22;5104;50.720;7.044;2023-03-14T05:56:05;10.00;1.00
10129;DHT22;5104;50.720;7.044;2023-03-14T05:58:33;10.10;99.90
10129;DHT22;5104;50.720;7.044;2023-03-14T06:01:02;10.10;1.00
10129;DHT22;5104;50.720;7.044;2023-03-14T06:03:29;10.10;1.00
10129;DHT22;5104;50.720;7.044;2023-03-14T06:05:55;10.10;1.00
10129;DHT22;5104;50.720;7.044;2023-03-14T06:08:24;10.20;1.00
10129;DHT22;5104;50.720;7.044;2023-03-14T06:10:51;10.20;1.00
10129;DHT22;5104;50.720;7.044;2023-03-14T06:13:18;10.20;1.00
10129;DHT22;5104;50.720;7.044;2023-03-14T06:15:45;10.20;99.90
10129;DHT22;5104;50.720;7.044;2023-03-14T06:18:12;10.20;99.90
10129;DHT22;5104;50.720;7.044;2023-03-14T06:20:39;10.20;99.90
10129;DHT22;5104;50.720;7.044;2023-03-14T06:23:07;10.20;1.00
10129;DHT22;5104;50.720;7.044;2023-03-14T06:25:35;10.20;1.00
10129;DHT22;5104;50.720;7.044;2023-03-14T06:28:02;10.20;7.10
10129;DHT22;5104;50.720;7.044;2023-03-14T06:30:29;10.20;99.90
10129;DHT22;5104;50.720;7.044;2023-03-14T06:32:56;10.20;1.00
10129;DHT22;5104;50.720;7.044;2023-03-14T06:35:23;10.20;99.90
10129;DHT22;5104;50.720;7.044;2023-03-14T06:37:50;10.20;1.00
10129;DHT22;5104;50.720;7.044;2023-03-14T06:40:17;10.20;99.90
10129;DHT22;5104;50.720;7.044;2023-03-14T06:42:45;10.20;1.00
10129;DHT22;5104;50.720;7.044;2023-03-14T06:45:13;10.20;99.90
10129;DHT22;5104;50.720;7.044;2023-03-14T06:47:40;10.20;99.90
10129;DHT22;5104;50.720;7.044;2023-03-14T06:50:08;10.30;99.90
10129;DHT22;5104;50.720;7.044;2023-03-14T06:52:35;10.40;99.90
10129;DHT22;5104;50.720;7.044;2023-03-14T06:55:02;10.50;1.00
10129;DHT22;5104;50.720;7.044;2023-03-14T06:57:29;10.70;1.00
10129;DHT22;5104;50.720;7.044;2023-03-14T06:59:57;10.80;99.90
10129;DHT22;5104;50.720;7.044;2023-03-14T07:02:24;11.00;99.90
10129;DHT22;5104;50.720;7.044;2023-03-14T07:04:51;11.20;1.00
10129;DHT22;5104;50.720;7.044;2023-03-14T07:07:18;11.40;99.90
10129;DHT22;5104;50.720;7.044;2023-03-14T07:09:45;11.50;1.00
10129;DHT22;5104;50.720;7.044;2023-03-14T07:12:12;11.60;1.00
10129;DHT22;5104;50.720;7.044;2023-03-14T07:14:41;11.60;99.90
10129;DHT22;5104;50.720;7.044;2023-03-14T07:17:09;11.50;1.00
10129;DHT22;5104;50.720;7.044;2023-03-14T07:19:36;11.40;1.00
10129;DHT22;5104;50.720;7.044;2023-03-14T07:22:03;11.30;1.00
10129;DHT22;5104;50.720;7.044;2023-03-14T07:24:30;11.30;7.10
10129;DHT22;5104;50.720;7.044;2023-03-14T07:26:57;11.30;99.90
10129;DHT22;5104;50.720;7.044;2023-03-14T07:29:24;11.30;1.00
10129;DHT22;5104;50.720;7.044;2023-03-14T07:31:51;11.30;1.00
10129;DHT22;5104;50.720;7.044;2023-03-14T07:34:19;11.40;1.00
10129;DHT22;5104;50.720;7.044;2023-03-14T07:36:46;11.50;1.00
10129;DHT22;5104;50.720;7.044;2023-03-14T07:39:13;11.50;1.00
10129;DHT22;5104;50.720;7.044;2023-03-14T07:41:40;11.60;1.00
10129;DHT22;5104;50.720;7.044;2023-03-14T07:44:07;11.70;99.90
10129;DHT22;5104;50.720;7.044;2023-03-14T07:46:33;11.80;99.90
10129;DHT22;5104;50.720;7.044;2023-03-14T07:49:00;12.00;1.00
10129;DHT22;5104;50.720;7.044;2023-03-14T07:51:28;12.10;1.00
10129;DHT22;5104;50.720;7.044;2023-03-14T07:53:55;12.20;1.00
10129;DHT22;5104;50.720;7.044;2023-03-14T07:56:23;12.40;99.90
10129;DHT22;5104;50.720;7.044;2023-03-14T07:58:49;12.60;1.00
10129;DHT22;5104;50.720;7.044;2023-03-14T08:01:16;12.70;1.00
10129;DHT22;5104;50.720;7.044;2023-03-14T08:03:43;12.90;1.00
10129;DHT22;5104;50.720;7.044;2023-03-14T08:06:10;13.10;1.00
10129;DHT22;5104;50.720;7.044;2023-03-14T08:08:38;13.10;99.90
10129;DHT22;5104;50.720;7.044;2023-03-14T08:11:07;13.10;99.90
10129;DHT22;5104;50.720;7.044;2023-03-14T08:13:35;13.20;99.90
10129;DHT22;5104;50.720;7.044;2023-03-14T08:16:02;13.40;99.90
10129;DHT22;5104;50.720;7.044;2023-03-14T08:18:29;13.50;1.00
10129;DHT22;5104;50.720;7.044;2023-03-14T08:20:56;13.70;1.00
10129;DHT22;5104;50.720;7.044;2023-03-14T08:23:23;13.70;1.00
10129;DHT22;5104;50.720;7.044;2023-03-14T08:25:52;13.70;1.00
10129;DHT22;5104;50.720;7.044;2023-03-14T08:28:19;13.70;1.00
10129;DHT22;5104;50.720;7.044;2023-03-14T08:30:46;13.50;1.00
10129;DHT22;5104;50.720;7.044;2023-03-14T08:33:13;13.80;1.00
10129;DHT22;5104;50.720;7.044;2023-03-14T08:35:40;14.00;1.00
10129;DHT22;5104;50.720;7.044;2023-03-14T08:38:06;13.90;1.00
10129;DHT22;5104;50.720;7.044;2023-03-14T08:40:33;13.90;1.00
10129;DHT22;5104;50.720;7.044;2023-03-14T08:43:02;13.90;1.00
10129;DHT22;5104;50.720;7.044;2023-03-14T08:45:28;14.10;1.00
10129;DHT22;5104;50.720;7.044;2023-03-14T08:47:55;14.10;1.00
10129;DHT22;5104;50.720;7.044;2023-03-14T08:50:24;14.10;1.00
10129;DHT22;5104;50.720;7.044;2023-03-14T08:52:51;14.00;1.00
10129;DHT22;5104;50.720;7.044;2023-03-14T08:55:18;14.00;1.00
10129;DHT22;5104;50.720;7.044;2023-03-14T08:57:45;14.00;1.00
10129;DHT22;5104;50.720;7.044;2023-03-14T09:00:15;13.90;1.00
10129;DHT22;5104;50.720;7.044;2023-03-14T09:02:43;13.90;1.00
10129;DHT22;5104;50.720;7.044;2023-03-14T09:05:10;13.80;1.00
10129;DHT22;5104;50.720;7.044;2023-03-14T09:07:37;13.60;78.90
10129;DHT22;5104;50.720;7.044;2023-03-14T09:10:05;13.40;1.00
10129;DHT22;5104;50.720;7.044;2023-03-14T09:12:32;13.20;99.90
10129;DHT22;5104;50.720;7.044;2023-03-14T09:15:00;12.90;1.00
10129;DHT22;5104;50.720;7.044;2023-03-14T09:17:28;12.90;1.00
10129;DHT22;5104;50.720;7.044;2023-03-14T09:19:55;12.80;1.00
10129;DHT22;5104;50.720;7.044;2023-03-14T09:22:22;12.80;90.60
10129;DHT22;5104;50.720;7.044;2023-03-14T09:24:49;12.90;99.90
10129;DHT22;5104;50.720;7.044;2023-03-14T09:27:16;12.90;99.90
10129;DHT22;5104;50.720;7.044;2023-03-14T09:29:43;12.90;99.90
10129;DHT22;5104;50.720;7.044;2023-03-14T09:32:10;13.10;99.90
10129;DHT22;5104;50.720;7.044;2023-03-14T09:34:38;13.10;99.90
10129;DHT22;5104;50.720;7.044;2023-03-14T09:37:05;13.00;1.00
10129;DHT22;5104;50.720;7.044;2023-03-14T09:39:32;13.00;1.00
10129;DHT22;5104;50.720;7.044;2023-03-14T09:42:02;12.90;99.90
10129;DHT22;5104;50.720;7.044;2023-03-14T09:44:31;12.70;1.00
10129;DHT22;5104;50.720;7.044;2023-03-14T09:47:03;12.70;99.90
10129;DHT22;5104;50.720;7.044;2023-03-14T09:49:33;12.60;1.00
10129;DHT22;5104;50.720;7.044;2023-03-14T09:52:06;12.60;1.00
10129;DHT22;5104;50.720;7.044;2023-03-14T09:54:36;12.30;99.90
10129;DHT22;5104;50.720;7.044;2023-03-14T09:57:05;11.90;99.90
10129;DHT22;5104;50.720;7.044;2023-03-14T09:59:34;11.20;99.90
10129;DHT22;5104;50.720;7.044;2023-03-14T10:02:10;10.80;44.80
10129;DHT22;5104;50.720;7.044;2023-03-14T10:04:38;10.50;99.90
10129;DHT22;5104;50.720;7.044;2023-03-14T10:07:13;10.20;1.00
10129;DHT22;5104;50.720;7.044;2023-03-14T10:09:43;10.00;99.90
10129;DHT22;5104;50.720;7.044;2023-03-14T10:12:10;9.90;1.00
10129;DHT22;5104;50.720;7.044;2023-03-14T10:14:45;9.50;99.90
10129;DHT22;5104;50.720;7.044;2023-03-14T10:17:13;9.20;99.90
10129;DHT22;5104;50.720;7.044;2023-03-14T10:19:51;9.10;1.00
10129;DHT22;5104;50.720;7.044;2023-03-14T10:22:21;9.00;99.90
10129;DHT22;5104;50.720;7.044;2023-03-14T10:24:52;8.90;99.90
10129;DHT22;5104;50.720;7.044;2023-03-14T10:27:26;8.90;51.00
10129;DHT22;5104;50.720;7.044;2023-03-14T10:29:54;8.80;99.90
10129;DHT22;5104;50.720;7.044;2023-03-14T10:32:27;9.00;99.90
10129;DHT22;5104;50.720;7.044;2023-03-14T10:35:07;9.10;1.00
10129;DHT22;5104;50.720;7.044;2023-03-14T10:37:35;9.20;99.90
10129;DHT22;5104;50.720;7.044;2023-03-14T10:40:03;9.20;1.00
10129;DHT22;5104;50.720;7.044;2023-03-14T10:42:34;9.20;55.80
10129;DHT22;5104;50.720;7.044;2023-03-14T10:45:15;9.20;1.00
10129;DHT22;5104;50.720;7.044;2023-03-14T10:47:49;9.00;99.90
10129;DHT22;5104;50.720;7.044;2023-03-14T10:50:24;8.90;46.00
10129;DHT22;5104;50.720;7.044;2023-03-14T10:52:53;9.00;99.90
10129;DHT22;5104;50.720;7.044;2023-03-14T10:55:22;9.10;1.00
10129;DHT22;5104;50.720;7.044;2023-03-14T10:57:50;9.10;1.00
10129;DHT22;5104;50.720;7.044;2023-03-14T11:00:19;9.30;1.00
10129;DHT22;5104;50.720;7.044;2023-03-14T11:03:01;9.30;99.90
10129;DHT22;5104;50.720;7.044;2023-03-14T11:05:35;9.30;1.00
10129;DHT22;5104;50.720;7.044;2023-03-14T11:08:12;9.30;1.00
10129;DHT22;5104;50.720;7.044;2023-03-14T11:10:44;9.30;1.00
10129;DHT22;5104;50.720;7.044;2023-03-14T11:13:17;9.30;1.00
10129;DHT22;5104;50.720;7.044;2023-03-14T11:15:53;9.30;99.90
10129;DHT22;5104;50.720;7.044;2023-03-14T11:18:41;9.30;1.00
10129;DHT22;5104;50.720;7.044;2023-03-14T11:21:14;9.40;1.00
10129;DHT22;5104;50.720;7.044;2023-03-14T11:23:54;9.40;1.00
10129;DHT22;5104;50.720;7.044;2023-03-14T11:26:32;9.50;1.00
10129;DHT22;5104;50.720;7.044;2023-03-14T11:29:12;9.60;1.00
10129;DHT22;5104;50.720;7.044;2023-03-14T11:31:44;9.60;1.00
10129;DHT22;5104;50.720;7.044;2023-03-14T11:34:16;9.40;1.00
10129;DHT22;5104;50.720;7.044;2023-03-14T11:36:48;9.40;99.90
10129;DHT22;5104;50.720;7.044;2023-03-14T11:39:19;9.50;1.00
10129;DHT22;5104;50.720;7.044;2023-03-14T11:41:48;9.70;99.90
10129;DHT22;5104;50.720;7.044;2023-03-14T11:44:18;9.90;99.90
10129;DHT22;5104;50.720;7.044;2023-03-14T11:46:50;10.10;1.00
10129;DHT22;5104;50.720;7.044;2023-03-14T11:49:26;10.20;1.00
10129;DHT22;5104;50.720;7.044;2023-03-14T11:51:56;10.20;1.00
10129;DHT22;5104;50.720;7.044;2023-03-14T11:54:35;10.30;99.90
10129;DHT22;5104;50.720;7.044;2023-03-14T11:57:09;10.30;1.00
10129;DHT22;5104;50.720;7.044;2023-03-14T11:59:45;10.40;1.00
10129;DHT22;5104;50.720;7.044;2023-03-14T12:02:20;10.60;1.00
10129;DHT22;5104;50.720;7.044;2023-03-14T12:05:14;10.60;99.90
10129;DHT22;5104;50.720;7.044;2023-03-14T12:07:59;10.60;1.00
10129;DHT22;5104;50.720;7.044;2023-03-14T12:10:37;10.90;1.00
10129;DHT22;5104;50.720;7.044;2023-03-14T12:13:04;10.70;1.00
10129;DHT22;5104;50.720;7.044;2023-03-14T12:15:36;10.40;1.00
10129;DHT22;5104;50.720;7.044;2023-03-14T12:18:19;9.20;1.00
10129;DHT22;5104;50.720;7.044;2023-03-14T12:20:51;8.60;99.90
10129;DHT22;5104;50.720;7.044;2023-03-14T12:23:22;8.20;99.90
10129;DHT22;5104;50.720;7.044;2023-03-14T12:26:08;7.90;1.00
10129;DHT22;5104;50.720;7.044;2023-03-14T12:28:42;7.50;1.00
10129;DHT22;5104;50.720;7.044;2023-03-14T12:31:40;7.40;1.00
10129;DHT22;5104;50.720;7.044;2023-03-14T12:34:29;7.20;99.90
10129;DHT22;5104;50.720;7.044;2023-03-14T12:37:10;7.10;99.90
10129;DHT22;5104;50.720;7.044;2023-03-14T12:39:45;7.10;99.90
10129;DHT22;5104;50.720;7.044;2023-03-14T12:42:22;7.20;99.90
10129;DHT22;5104;50.720;7.044;2023-03-14T12:45:21;7.30;99.90
10129;DHT22;5104;50.720;7.044;2023-03-14T12:47:56;7.50;99.90
10129;DHT22;5104;50.720;7.044;2023-03-14T12:50:33;7.70;99.90
10129;DHT22;5104;50.720;7.044;2023-03-14T12:56:02;8.00;99.90
10129;DHT22;5104;50.720;7.044;2023-03-14T12:58:35;8.20;1.00
10129;DHT22;5104;50.720;7.044;2023-03-14T13:01:06;8.30;99.90
10129;DHT22;5104;50.720;7.044;2023-03-14T13:03:45;8.40;1.00
10129;DHT22;5104;50.720;7.044;2023-03-14T13:06:47;8.30;1.00
10129;DHT22;5104;50.720;7.044;2023-03-14T13:09:48;8.30;1.00
10129;DHT22;5104;50.720;7.044;2023-03-14T13:12:19;8.30;1.00
10129;DHT22;5104;50.720;7.044;2023-03-14T13:14:51;8.30;1.00
10129;DHT22;5104;50.720;7.044;2023-03-14T13:17:24;8.30;99.90
10129;DHT22;5104;50.720;7.044;2023-03-14T13:19:55;8.30;1.00
10129;DHT22;5104;50.720;7.044;2023-03-14T13:22:26;8.40;99.90
10129;DHT22;5104;50.720;7.044;2023-03-14T13:25:00;8.30;62.90
10129;DHT22;5104;50.720;7.044;2023-03-14T13:27:35;8.30;1.00
10129;DHT22;5104;50.720;7.044;2023-03-14T13:30:21;8.30;91.40
10129;DHT22;5104;50.720;7.044;2023-03-14T13:32:49;8.20;69.40
10129;DHT22;5104;50.720;7.044;2023-03-14T13:35:19;8.10;99.90
10129;DHT22;5104;50.720;7.044;2023-03-14T13:37:46;8.10;99.90
10129;DHT22;5104;50.720;7.044;2023-03-14T13:40:24;8.20;1.00
10129;DHT22;5104;50.720;7.044;2023-03-14T13:43:01;8.30;16.80
10129;DHT22;5104;50.720;7.044;2023-03-14T13:45:30;8.40;99.90
10129;DHT22;5104;50.720;7.044;2023-03-14T13:47:57;8.30;1.00
10129;DHT22;5104;50.720;7.044;2023-03-14T13:50:24;8.20;1.00
10129;DHT22;5104;50.720;7.044;2023-03-14T13:52:55;8.10;1.00
10129;DHT22;5104;50.720;7.044;2023-03-14T13:55:23;8.10;1.00
10129;DHT22;5104;50.720;7.044;2023-03-14T13:57:52;8.20;74.80
10129;DHT22;5104;50.720;7.044;2023-03-14T14:00:22;8.00;1.00
10129;DHT22;5104;50.720;7.044;2023-03-14T14:02:53;7.90;1.00
10129;DHT22;5104;50.720;7.044;2023-03-14T14:05:21;7.90;1.00
10129;DHT22;5104;50.720;7.044;2023-03-14T14:07:50;7.70;99.90
10129;DHT22;5104;50.720;7.044;2023-03-14T14:10:18;7.60;1.00
10129;DHT22;5104;50.720;7.044;2023-03-14T14:12:48;7.30;1.00
10129;DHT22;5104;50.720;7.044;2023-03-14T14:15:20;7.10;1.00
10129;DHT22;5104;50.720;7.044;2023-03-14T14:17:51;7.00;1.00
10129;DHT22;5104;50.720;7.044;2023-03-14T14:20:28;6.80;1.00
10129;DHT22;5104;50.720;7.044;2023-03-14T14:22:58;6.50;1.00
10129;DHT22;5104;50.720;7.044;2023-03-14T14:25:26;6.30;1.00
10129;DHT22;5104;50.720;7.044;2023-03-14T14:27:53;6.10;99.90
10129;DHT22;5104;50.720;7.044;2023-03-14T14:30:29;6.00;99.90
10129;DHT22;5104;50.720;7.044;2023-03-14T14:33:18;6.00;99.90
10129;DHT22;5104;50.720;7.044;2023-03-14T14:35:53;5.90;99.90
10129;DHT22;5104;50.720;7.044;2023-03-14T14:38:21;5.90;99.90
10129;DHT22;5104;50.720;7.044;2023-03-14T14:40:50;5.90;99.90
10129;DHT22;5104;50.720;7.044;2023-03-14T14:43:19;5.90;99.90
10129;DHT22;5104;50.720;7.044;2023-03-14T14:45:49;5.90;99.90
10129;DHT22;5104;50.720;7.044;2023-03-14T14:48:20;6.00;99.90
10129;DHT22;5104;50.720;7.044;2023-03-14T14:50:58;6.00;99.90
10129;DHT22;5104;50.720;7.044;2023-03-14T14:53:30;6.10;99.90
10129;DHT22;5104;50.720;7.044;2023-03-14T14:55:59;6.20;99.90
10129;DHT22;5104;50.720;7.044;2023-03-14T14:58:28;6.30;99.90
10129;DHT22;5104;50.720;7.044;2023-03-14T15:00:58;6.30;99.90
10129;DHT22;5104;50.720;7.044;2023-03-14T15:03:28;6.40;99.90
10129;DHT22;5104;50.720;7.044;2023-03-14T15:05:57;6.30;1.00
10129;DHT22;5104;50.720;7.044;2023-03-14T15:08:25;6.40;99.90
10129;DHT22;5104;50.720;7.044;2023-03-14T15:10:53;6.40;99.90
10129;DHT22;5104;50.720;7.044;2023-03-14T15:13:20;6.40;99.90
10129;DHT22;5104;50.720;7.044;2023-03-14T15:15:48;6.40;99.90
10129;DHT22;5104;50.720;7.044;2023-03-14T15:18:21;6.40;99.90
10129;DHT22;5104;50.720;7.044;2023-03-14T15:20:48;6.40;34.90
10129;DHT22;5104;50.720;7.044;2023-03-14T15:23:18;6.20;99.90
10129;DHT22;5104;50.720;7.044;2023-03-14T15:25:46;6.20;99.90
10129;DHT22;5104;50.720;7.044;2023-03-14T15:28:15;6.20;99.90
10129;DHT22;5104;50.720;7.044;2023-03-14T15:30:43;6.30;1.00
10129;DHT22;5104;50.720;7.044;2023-03-14T15:33:10;6.30;91.00
10129;DHT22;5104;50.720;7.044;2023-03-14T15:35:37;6.30;99.90
10129;DHT22;5104;50.720;7.044;2023-03-14T15:38:04;6.20;99.90
10129;DHT22;5104;50.720;7.044;2023-03-14T15:40:32;6.20;1.00
10129;DHT22;5104;50.720;7.044;2023-03-14T15:42:59;6.20;18.30
10129;DHT22;5104;50.720;7.044;2023-03-14T15:45:26;6.20;99.90
10129;DHT22;5104;50.720;7.044;2023-03-14T15:47:53;6.20;99.90
10129;DHT22;5104;50.720;7.044;2023-03-14T15:50:20;6.30;99.90
10129;DHT22;5104;50.720;7.044;2023-03-14T15:52:47;6.30;99.90
10129;DHT22;5104;50.720;7.044;2023-03-14T15:55:14;6.30;99.90
10129;DHT22;5104;50.720;7.044;2023-03-14T15:57:43;6.30;1.00
10129;DHT22;5104;50.720;7.044;2023-03-14T16:00:13;6.30;99.90
10129;DHT22;5104;50.720;7.044;2023-03-14T16:02:41;6.30;1.00
10129;DHT22;5104;50.720;7.044;2023-03-14T16:05:09;6.30;99.90
10129;DHT22;5104;50.720;7.044;2023-03-14T16:07:36;6.30;1.00
10129;DHT22;5104;50.720;7.044;2023-03-14T16:10:04;6.20;1.00
10129;DHT22;5104;50.720;7.044;2023-03-14T16:12:31;6.20;1.00
10129;DHT22;5104;50.720;7.044;2023-03-14T16:14:59;6.30;99.90
10129;DHT22;5104;50.720;7.044;2023-03-14T16:17:27;6.20;1.00